Flight Track Log - Related Links

Times and Time Zones

All times are in EDT time to prevent confusion due to time zone crossing. See the CDG4604 flight status page for this flight to view local times or setup timezone preferences in your user account.

Time Position Orientation Groundspeed Altitude Reporting Facility
EDT Latitude Longitude Course Direction KTS MPH feet Rate Location/Type
Sun 11:52:08 AM 30.9700 121.8660 132° Southeast 283 326 7,200  Level FlightAware ADS-B
Sun 11:53:23 AM 30.9980 121.9660 72° East 307 353 11,100 3,106 Climbing FlightAware ADS-B
Sun 11:53:33 AM 31.0130 121.9690 10° North 304 350 11,600 3,000 Climbing FlightAware ADS-B
Sun 11:54:03 AM 31.0540 121.9580 347° North 305 351 13,100 2,914 Climbing FlightAware ADS-B
Sun 11:54:43 AM 31.1100 121.9390 344° North 317 365 15,000 1,493 Climbing FlightAware ADS-B
Sun 11:57:00 AM 31.4990 121.8274 346° North  Level Estimated
Sun 11:57:48 AM 31.3960 121.8430 346° North 353 406 18,700  Level FlightAware ADS-B
Sun 11:58:28 AM 31.4610 121.8350 354° North 352 405 18,700 86 Level FlightAware ADS-B
Sun 11:58:58 AM 31.5110 121.8290 354° North 355 409 18,800 1,457 Climbing FlightAware ADS-B
Sun 11:59:38 AM 31.5760 121.8210 354° North 356 410 20,400 2,509 Climbing FlightAware ADS-B
Sun 11:59:53 AM 31.5990 121.8190 356° North 356 410 21,100 2,800 Climbing FlightAware ADS-B
Sun 12:04:00 PM 32.2995 121.6123 346° North  Level Estimated
Sun 12:05:00 PM 32.4696 121.5616 346° North  Level Estimated
Sun 12:06:00 PM 32.6397 121.5107 346° North  Level Estimated
Sun 12:07:00 PM 32.8098 121.4596 346° North  Level Estimated
Sun 12:08:00 PM 32.9798 121.4083 346° North  Level Estimated
Sun 12:09:00 PM 33.0635 121.3830 346° North  Level Estimated
Sun 12:10:00 PM 33.1471 121.3577 346° North  Level Estimated
Sun 12:11:00 PM 33.2307 121.3323 346° North  Level Estimated
Sun 12:12:00 PM 33.3143 121.3068 346° North  Level Estimated
Sun 12:13:00 PM 33.3979 121.2814 346° North  Level Estimated
Sun 12:14:00 PM 33.4815 121.2558 346° North  Level Estimated
Sun 12:15:00 PM 33.5651 121.2302 346° North  Level Estimated
Sun 12:16:00 PM 33.6487 121.2046 346° North  Level Estimated
Sun 12:17:00 PM 33.7323 121.1789 346° North  Level Estimated
Sun 12:18:00 PM 33.8158 121.1532 346° North  Level Estimated
Sun 12:19:00 PM 33.8994 121.1274 346° North  Level Estimated
Sun 12:20:00 PM 33.9830 121.1016 346° North  Level Estimated
Sun 12:21:00 PM 34.0665 121.0757 346° North  Level Estimated
Sun 12:22:00 PM 34.1501 121.0498 346° North  Level Estimated
Sun 12:23:00 PM 34.2337 121.0238 346° North  Level Estimated
Sun 12:24:00 PM 34.3172 120.9977 346° North  Level Estimated
Sun 12:25:00 PM 34.4007 120.9716 346° North  Level Estimated
Sun 12:26:00 PM 34.4843 120.9455 346° North  Level Estimated
Sun 12:27:00 PM 34.5678 120.9193 346° North  Level Estimated
Sun 12:28:00 PM 34.6513 120.8930 346° North  Level Estimated
Sun 12:29:00 PM 34.7348 120.8667 345° North  Level Estimated
Sun 12:30:00 PM 34.8184 120.8404 345° North  Level Estimated
Sun 12:31:00 PM 34.9019 120.8140 345° North  Level Estimated
Sun 12:32:00 PM 34.9854 120.7875 345° North  Level Estimated
Sun 12:33:00 PM 35.0689 120.7610 345° North  Level Estimated
Sun 12:34:00 PM 35.1523 120.7344 345° North  Level Estimated
Sun 12:35:00 PM 35.2358 120.7078 345° North  Level Estimated
Sun 12:36:00 PM 35.3193 120.6811 345° North  Level Estimated
Sun 12:37:00 PM 35.4028 120.6544 345° North  Level Estimated
Sun 12:38:00 PM 35.4862 120.6276 345° North  Level Estimated
Sun 12:39:00 PM 35.5697 120.6007 345° North  Level Estimated
Sun 12:40:00 PM 35.6531 120.5738 345° North  Level Estimated
Sun 12:41:00 PM 35.7366 120.5469 345° North  Level Estimated
Sun 12:42:00 PM 35.8200 120.5199 345° North  Level Estimated
Sun 12:43:00 PM 35.9035 120.4928 345° North  Level Estimated
Sun 12:44:00 PM 35.9869 120.4657 345° North  Level Estimated
Sun 12:45:00 PM 36.0703 120.4385 345° North  Level Estimated
Sun 12:46:00 PM 36.1538 120.4112 345° North  Level Estimated
Sun 12:47:00 PM 36.2372 120.3839 345° North  Level Estimated
Sun 12:48:00 PM 36.2661 120.3744 345° North  Level Estimated
Sun 12:49:00 PM 36.2661 120.3744 238° Southwest  Level Estimated
Sun 12:50:00 PM 36.2661 120.3744 238° Southwest  Level Estimated
Sun 12:51:00 PM 36.2661 120.3744 238° Southwest  Level Estimated
Sun 12:52:00 PM 36.2661 120.3744 238° Southwest  Level Estimated
Sun 12:53:00 PM 36.2661 120.3744 238° Southwest  Level Estimated
Sun 12:54:00 PM 36.2661 120.3744 238° Southwest  Level Estimated
Sun 12:55:00 PM 36.2661 120.3744 238° Southwest  Level Estimated
Sun 12:56:00 PM 36.2661 120.3744 238° Southwest  Level Estimated
Sun 12:57:00 PM 36.2661 120.3744 238° Southwest  Level Estimated
Sun 12:58:00 PM 36.2661 120.3744 238° Southwest  Level Estimated
Sun 12:59:00 PM 36.2661 120.3744 238° Southwest  Level Estimated
Sun 01:00:00 PM 36.2661 120.3744 238° Southwest  Level Estimated

Login

Don't have an account? Register now (free) for customized features, flight alerts, and more!